createdAt,value
2023-03-21T00:01:50.378Z,100544.06
2023-03-21T00:04:54.927Z,100548.09
2023-03-21T00:07:56.855Z,100540.03
2023-03-21T00:11:00.479Z,100546.69
2023-03-21T00:14:02.578Z,100548.41
2023-03-21T00:17:04.954Z,100543.34
2023-03-21T00:20:15.310Z,100555.59
2023-03-21T00:23:17.361Z,100554.22
2023-03-21T00:26:19.239Z,100557.44
2023-03-21T00:29:21.292Z,100549.78
2023-03-21T00:32:23.070Z,100550.94
2023-03-21T00:38:46.910Z,100552.56
2023-03-21T00:41:50.142Z,100545.00
2023-03-21T00:44:51.958Z,100543.94
2023-03-21T00:47:53.898Z,100578.75
2023-03-21T00:50:57.260Z,100592.25
2023-03-21T00:53:59.549Z,100597.22
2023-03-21T00:57:02.880Z,100593.94
2023-03-21T01:00:07.650Z,100605.31
2023-03-21T01:03:23.773Z,100581.12
2023-03-21T01:06:27.363Z,100590.19
2023-03-21T01:09:29.281Z,100590.69
2023-03-21T01:12:31.167Z,100581.72
2023-03-21T01:15:33.115Z,100580.50
2023-03-21T01:18:36.579Z,100577.72
2023-03-21T01:21:38.330Z,100578.41
2023-03-21T01:24:50.313Z,100580.22
2023-03-21T01:27:57.243Z,100561.00
2023-03-21T01:31:00.853Z,100565.19
2023-03-21T01:34:02.749Z,100570.62
2023-03-21T01:37:04.583Z,100567.56
2023-03-21T01:40:07.059Z,100571.81
2023-03-21T01:43:30.396Z,100565.28
2023-03-21T01:46:51.521Z,100562.47
2023-03-21T01:50:01.842Z,100547.19
2023-03-21T01:53:04.540Z,100545.69
2023-03-21T01:56:11.077Z,100540.69
2023-03-21T01:59:21.559Z,100528.91
2023-03-21T02:02:31.288Z,100525.56
2023-03-21T02:05:40.312Z,100500.56
2023-03-21T02:08:42.193Z,100505.06
2023-03-21T02:11:46.716Z,100516.09
2023-03-21T02:14:49.176Z,100506.00
2023-03-21T02:18:06.553Z,100515.25
2023-03-21T02:21:08.206Z,100508.06
2023-03-21T02:24:33.190Z,100527.00
2023-03-21T02:27:39.679Z,100535.19
2023-03-21T02:30:51.984Z,100529.50
2023-03-21T02:34:12.658Z,100529.66
2023-03-21T02:37:28.843Z,100521.78
2023-03-21T02:40:44.031Z,100527.78
2023-03-21T02:44:21.344Z,100514.22
2023-03-21T02:47:41.717Z,100515.00
2023-03-21T02:50:46.751Z,100499.91
2023-03-21T02:54:16.679Z,100490.12
2023-03-21T02:57:18.845Z,100483.38
2023-03-21T03:00:24.528Z,100487.00
2023-03-21T03:03:34.095Z,100491.88
2023-03-21T03:06:44.314Z,100483.19
2023-03-21T03:10:10.904Z,100465.97
2023-03-21T03:13:16.353Z,100465.56
2023-03-21T03:16:40.275Z,100472.66
2023-03-21T03:19:55.059Z,100468.16
2023-03-21T03:23:10.111Z,100470.63
2023-03-21T03:26:16.326Z,100470.56
2023-03-21T03:29:19.214Z,100472.38
2023-03-21T03:32:28.250Z,100475.72
2023-03-21T03:35:30.481Z,100474.66
2023-03-21T03:38:32.802Z,100470.16
2023-03-21T03:42:04.363Z,100472.78
2023-03-21T03:45:04.600Z,100459.62
2023-03-21T03:48:12.367Z,100462.12
2023-03-21T03:51:28.340Z,100475.06
2023-03-21T03:54:33.892Z,100477.56
2023-03-21T03:57:35.954Z,100472.28
2023-03-21T04:00:38.285Z,100469.12
2023-03-21T04:03:49.009Z,100464.63
2023-03-21T04:06:53.455Z,100467.28
2023-03-21T04:09:55.272Z,100464.63
2023-03-21T04:12:57.133Z,100460.97
2023-03-21T04:15:59.213Z,100471.31
2023-03-21T04:19:02.154Z,100466.31
2023-03-21T04:22:04.019Z,100463.94
2023-03-21T04:25:06.506Z,100464.34
2023-03-21T04:28:08.370Z,100468.06
2023-03-21T04:31:22.681Z,100478.59
2023-03-21T04:34:28.327Z,100470.16
2023-03-21T04:37:33.481Z,100464.91
2023-03-21T04:40:35.664Z,100472.19
2023-03-21T04:43:37.605Z,100471.37
2023-03-21T04:46:39.932Z,100458.06
2023-03-21T04:49:45.806Z,100463.69
2023-03-21T04:52:48.776Z,100463.81
2023-03-21T04:55:54.855Z,100472.72
2023-03-21T04:58:58.214Z,100471.75
2023-03-21T05:02:01.232Z,100478.94
2023-03-21T05:05:03.099Z,100479.91
2023-03-21T05:08:06.001Z,100484.87
2023-03-21T05:11:07.797Z,100485.47
2023-03-21T05:14:12.699Z,100484.16
2023-03-21T05:17:15.459Z,100490.28
2023-03-21T05:20:17.786Z,100493.53
2023-03-21T05:23:20.492Z,100492.66
2023-03-21T05:26:23.162Z,100489.91
2023-03-21T05:29:25.097Z,100501.56
2023-03-21T05:32:26.987Z,100504.44
2023-03-21T05:35:28.842Z,100504.81
2023-03-21T05:38:31.153Z,100508.53
2023-03-21T05:41:33.213Z,100509.50
2023-03-21T05:44:35.029Z,100503.56
2023-03-21T05:47:36.801Z,100494.37
2023-03-21T05:50:39.282Z,100480.00
2023-03-21T05:53:41.218Z,100477.16
2023-03-21T05:56:42.926Z,100471.19
2023-03-21T05:59:45.168Z,100474.25
2023-03-21T06:02:47.291Z,100465.97
2023-03-21T06:05:49.145Z,100461.50
2023-03-21T06:08:50.910Z,100457.75
2023-03-21T06:11:54.725Z,100454.91
2023-03-21T06:14:56.735Z,100450.66
2023-03-21T06:17:58.669Z,100449.50
2023-03-21T06:21:00.982Z,100445.81
2023-03-21T06:24:03.650Z,100432.34
2023-03-21T06:27:05.829Z,100428.41
2023-03-21T06:30:08.474Z,100417.25
2023-03-21T06:33:10.911Z,100406.41
2023-03-21T06:36:12.668Z,100409.59
2023-03-21T06:39:16.109Z,100396.78
2023-03-21T06:42:18.025Z,100401.47
2023-03-21T06:45:20.070Z,100389.94
2023-03-21T06:48:21.856Z,100384.03
2023-03-21T06:51:23.799Z,100388.81
2023-03-21T06:54:25.880Z,100398.06
2023-03-21T06:57:27.831Z,100416.28
2023-03-21T07:00:30.246Z,100417.38
2023-03-21T07:03:32.898Z,100426.66
2023-03-21T07:06:34.915Z,100421.44
2023-03-21T07:09:36.713Z,100445.69
2023-03-21T07:12:38.592Z,100450.34
2023-03-21T07:15:41.364Z,100444.75
2023-03-21T07:18:43.342Z,100435.31
2023-03-21T07:21:45.803Z,100443.81
2023-03-21T07:25:02.439Z,100443.28
2023-03-21T07:28:09.174Z,100427.19
2023-03-21T07:31:17.776Z,100397.28
2023-03-21T07:34:19.915Z,100401.09
2023-03-21T07:37:21.839Z,100404.38
2023-03-21T07:40:23.683Z,100368.34
2023-03-21T07:43:25.673Z,100369.16
2023-03-21T07:46:27.549Z,100351.84
2023-03-21T07:49:31.176Z,100367.19
2023-03-21T07:52:33.317Z,100370.34
2023-03-21T07:55:35.927Z,100368.00
2023-03-21T07:58:38.028Z,100362.72
2023-03-21T08:01:40.080Z,100377.72
2023-03-21T08:04:41.907Z,100358.22
2023-03-21T08:07:43.666Z,100376.88
2023-03-21T08:10:45.923Z,100378.66
2023-03-21T08:13:47.844Z,100356.50
2023-03-21T08:16:49.723Z,100361.66
2023-03-21T08:19:51.578Z,100370.06
2023-03-21T08:22:53.367Z,100378.84
2023-03-21T08:26:06.758Z,100374.56
2023-03-21T08:29:10.991Z,100363.16
2023-03-21T08:32:12.838Z,100363.91
2023-03-21T08:35:17.669Z,100360.34
2023-03-21T08:38:19.415Z,100340.94
2023-03-21T08:41:22.158Z,100351.63
2023-03-21T08:44:26.013Z,100350.47
2023-03-21T08:47:27.890Z,100344.97
2023-03-21T08:50:31.757Z,100336.84
2023-03-21T08:53:34.207Z,100337.56
2023-03-21T08:56:37.470Z,100364.06
2023-03-21T08:59:39.661Z,100349.50
2023-03-21T09:02:42.232Z,100367.19
2023-03-21T09:05:45.636Z,100356.31
2023-03-21T09:08:48.444Z,100378.41
2023-03-21T09:11:52.458Z,100358.47
2023-03-21T09:14:54.392Z,100369.13
2023-03-21T09:17:59.253Z,100377.03
2023-03-21T09:21:01.070Z,100372.44
2023-03-21T09:24:05.796Z,100362.16
2023-03-21T09:27:08.160Z,100370.62
2023-03-21T09:30:11.110Z,100377.59
2023-03-21T09:33:19.239Z,100367.47
2023-03-21T09:36:25.129Z,100355.03
2023-03-21T09:39:27.210Z,100353.75
2023-03-21T09:42:32.825Z,100342.75
2023-03-21T09:45:44.713Z,100336.34
2023-03-21T09:48:57.122Z,100333.19
2023-03-21T09:52:03.596Z,100324.97
2023-03-21T09:55:18.804Z,100313.22
2023-03-21T09:58:31.102Z,100311.63
2023-03-21T10:01:34.297Z,100314.69
2023-03-21T10:04:37.442Z,100296.09
2023-03-21T10:07:42.457Z,100306.97
2023-03-21T10:10:48.372Z,100310.84
2023-03-21T10:13:56.150Z,100308.53
2023-03-21T10:17:21.461Z,100313.72
2023-03-21T10:20:26.900Z,100307.66
2023-03-21T10:23:29.655Z,100316.34
2023-03-21T10:26:31.534Z,100321.87
2023-03-21T10:29:42.344Z,100327.63
2023-03-21T10:32:44.517Z,100304.16
2023-03-21T10:36:08.836Z,100335.63
2023-03-21T10:39:33.866Z,100325.44
2023-03-21T10:42:36.698Z,100322.97
2023-03-21T10:45:38.791Z,100322.44
2023-03-21T10:48:46.286Z,100330.66
2023-03-21T10:51:54.156Z,100330.91
2023-03-21T10:55:32.218Z,100320.97
2023-03-21T10:58:39.391Z,100328.50
2023-03-21T11:01:42.842Z,100313.69
2023-03-21T11:04:46.252Z,100313.03
2023-03-21T11:07:48.888Z,100303.97
2023-03-21T11:11:01.284Z,100305.13
2023-03-21T11:14:07.015Z,100300.06
2023-03-21T11:17:21.078Z,100277.53
2023-03-21T11:20:23.292Z,100284.16
2023-03-21T11:23:33.600Z,100280.03
2023-03-21T11:26:38.239Z,100272.38
2023-03-21T11:29:46.302Z,100258.22
2023-03-21T11:32:52.595Z,100259.12
2023-03-21T11:36:01.678Z,100268.25
2023-03-21T11:39:29.556Z,100247.47
2023-03-21T11:42:33.433Z,100236.28
2023-03-21T11:45:36.689Z,100222.16
2023-03-21T11:48:42.334Z,100202.28
2023-03-21T11:52:07.846Z,100198.66
2023-03-21T11:55:47.396Z,100219.75
2023-03-21T11:59:04.380Z,100194.69
2023-03-21T12:02:41.785Z,100202.41
2023-03-21T12:05:53.332Z,100205.59
2023-03-21T12:09:21.985Z,100206.75
2023-03-21T12:12:56.124Z,100216.78
2023-03-21T12:16:05.732Z,100206.13
2023-03-21T12:19:45.516Z,100196.91
2023-03-21T12:23:05.726Z,100202.28
2023-03-21T12:26:28.593Z,100183.41
2023-03-21T12:30:00.963Z,100187.47
2023-03-21T12:33:14.663Z,100168.28
2023-03-21T12:36:38.649Z,100150.47
2023-03-21T12:39:41.197Z,100192.28
2023-03-21T12:43:17.718Z,100185.69
2023-03-21T12:46:24.478Z,100182.66
2023-03-21T12:49:36.244Z,100178.69
2023-03-21T12:52:43.974Z,100166.06
2023-03-21T12:55:45.977Z,100159.00
2023-03-21T12:58:52.778Z,100151.84
2023-03-21T13:01:58.420Z,100142.81
2023-03-21T13:05:18.946Z,100131.16
2023-03-21T13:08:29.576Z,100123.06
2023-03-21T13:11:32.256Z,100117.19
2023-03-21T13:14:37.320Z,100113.84
2023-03-21T13:17:48.289Z,100124.81
2023-03-21T13:20:53.458Z,100120.16
2023-03-21T13:24:05.254Z,100122.88
2023-03-21T13:27:33.232Z,100112.34
2023-03-21T13:30:35.362Z,100106.19
2023-03-21T13:33:38.061Z,100098.34
2023-03-21T13:36:42.112Z,100098.09
2023-03-21T13:39:46.573Z,100100.81
2023-03-21T13:42:53.618Z,100101.59
2023-03-21T13:45:55.969Z,100101.22
2023-03-21T13:49:00.939Z,100101.34
2023-03-21T13:52:27.271Z,100095.50
2023-03-21T13:55:31.295Z,100097.34
2023-03-21T13:59:02.481Z,100083.47
2023-03-21T14:02:13.064Z,100095.94
2023-03-21T14:05:22.371Z,100098.47
2023-03-21T14:08:36.889Z,100108.53
2023-03-21T14:11:44.470Z,100103.34
2023-03-21T14:14:55.207Z,100095.25
2023-03-21T14:18:06.384Z,100116.28
2023-03-21T14:21:24.171Z,100096.41
2023-03-21T14:24:26.361Z,100094.41
2023-03-21T14:27:31.732Z,100083.94
2023-03-21T14:30:36.621Z,100070.47
2023-03-21T14:33:41.654Z,100052.84
2023-03-21T14:36:51.685Z,100068.84
2023-03-21T14:40:01.122Z,100065.81
2023-03-21T14:43:06.738Z,100066.91
2023-03-21T14:46:13.516Z,100073.72
2023-03-21T14:49:30.976Z,100064.59
2023-03-21T14:52:34.391Z,100071.63
2023-03-21T14:55:43.262Z,100074.34
2023-03-21T14:58:46.500Z,100069.31
2023-03-21T15:01:50.075Z,100107.75
2023-03-21T15:04:54.458Z,100097.72
2023-03-21T15:08:08.524Z,100100.31
2023-03-21T15:11:12.911Z,100111.63
2023-03-21T15:14:15.363Z,100111.37
2023-03-21T15:17:17.482Z,100103.25
2023-03-21T15:20:22.457Z,100110.28
2023-03-21T15:23:30.447Z,100121.87
2023-03-21T15:26:32.341Z,100119.13
2023-03-21T15:29:36.910Z,100126.16
2023-03-21T15:32:38.979Z,100124.19
2023-03-21T15:35:46.077Z,100115.97
2023-03-21T15:38:49.022Z,100113.81
2023-03-21T15:42:07.272Z,100118.69
2023-03-21T15:45:30.059Z,100107.38
2023-03-21T15:48:34.297Z,100120.94
2023-03-21T15:51:36.455Z,100123.53
2023-03-21T15:54:55.891Z,100131.94
2023-03-21T15:58:05.129Z,100127.78
2023-03-21T16:01:13.194Z,100122.81
2023-03-21T16:04:18.321Z,100136.91
2023-03-21T16:07:20.100Z,100134.06
2023-03-21T16:10:28.075Z,100142.59
2023-03-21T16:13:29.857Z,100127.75
2023-03-21T16:16:32.154Z,100139.88
2023-03-21T16:19:34.362Z,100142.41
2023-03-21T16:22:36.177Z,100151.47
2023-03-21T16:25:37.939Z,100153.16
2023-03-21T16:28:39.861Z,100163.63
2023-03-21T16:31:42.515Z,100169.28
2023-03-21T16:34:44.767Z,100181.75
2023-03-21T16:37:48.211Z,100182.97
2023-03-21T16:40:51.681Z,100194.56
2023-03-21T16:43:54.624Z,100188.50
2023-03-21T16:46:56.404Z,100206.63
2023-03-21T16:49:58.217Z,100221.53
2023-03-21T16:53:00.592Z,100216.87
2023-03-21T16:56:04.298Z,100225.75
2023-03-21T16:59:06.505Z,100235.88
2023-03-21T17:02:17.030Z,100243.59
2023-03-21T17:05:19.216Z,100226.34
2023-03-21T17:08:21.916Z,100237.63
2023-03-21T17:11:26.253Z,100237.75
2023-03-21T17:14:28.355Z,100245.09
2023-03-21T17:17:30.149Z,100241.22
2023-03-21T17:20:33.704Z,100248.56
2023-03-21T17:23:36.124Z,100260.00
2023-03-21T17:26:37.999Z,100258.28
2023-03-21T17:29:39.975Z,100249.72
2023-03-21T17:32:41.902Z,100260.75
2023-03-21T17:35:43.735Z,100260.13
2023-03-21T17:38:46.529Z,100268.59
2023-03-21T17:41:49.809Z,100275.06
2023-03-21T17:44:51.592Z,100275.31
2023-03-21T17:47:55.003Z,100273.59
2023-03-21T17:50:57.272Z,100277.75
2023-03-21T17:53:59.709Z,100273.97
2023-03-21T17:57:01.692Z,100286.81
2023-03-21T18:00:12.522Z,100291.22
2023-03-21T18:03:14.716Z,100291.84
2023-03-21T18:06:19.783Z,100285.91
2023-03-21T18:09:21.843Z,100299.28
2023-03-21T18:12:23.776Z,100308.69
2023-03-21T18:15:30.130Z,100301.69
2023-03-21T18:18:32.833Z,100299.00
2023-03-21T18:21:36.068Z,100312.91
2023-03-21T18:24:38.348Z,100318.03
2023-03-21T18:27:59.405Z,100315.78
2023-03-21T18:31:11.522Z,100318.81
2023-03-21T18:34:16.538Z,100320.50
2023-03-21T18:37:20.842Z,100323.66
2023-03-21T18:40:24.232Z,100336.59
2023-03-21T18:44:02.319Z,100338.37
2023-03-21T18:46:50.285Z,100332.34
2023-03-21T18:53:14.853Z,100344.97
2023-03-21T18:59:39.630Z,100355.63
2023-03-21T19:02:46.907Z,100355.09
2023-03-21T19:05:49.460Z,100358.44
2023-03-21T19:08:53.483Z,100355.97
2023-03-21T19:11:55.693Z,100382.94
2023-03-21T19:15:01.034Z,100403.31
2023-03-21T19:21:25.702Z,100408.91
2023-03-21T19:24:29.148Z,100412.81
2023-03-21T19:27:33.729Z,100406.37
2023-03-21T19:30:36.814Z,100416.47
2023-03-21T19:33:38.814Z,100403.72
2023-03-21T19:36:45.692Z,100417.25
2023-03-21T19:39:51.761Z,100408.12
2023-03-21T19:42:54.085Z,100411.03
2023-03-21T19:45:57.894Z,100400.06
2023-03-21T19:49:04.333Z,100403.81
2023-03-21T19:52:07.910Z,100417.44
2023-03-21T19:55:10.929Z,100433.34
2023-03-21T19:58:16.171Z,100448.34
2023-03-21T20:01:18.477Z,100452.16
2023-03-21T20:04:20.802Z,100459.56
2023-03-21T20:07:22.914Z,100480.53
2023-03-21T20:10:28.537Z,100479.75
2023-03-21T20:13:31.030Z,100475.38
2023-03-21T20:16:35.811Z,100479.50
2023-03-21T20:19:38.759Z,100481.41
2023-03-21T20:26:11.787Z,100473.72
2023-03-21T20:30:07.643Z,100478.13
2023-03-21T20:32:39.981Z,100479.69
2023-03-21T20:39:04.049Z,100485.41
2023-03-21T20:42:06.218Z,100478.31
2023-03-21T20:45:09.722Z,100487.75
2023-03-21T20:48:11.860Z,100496.59
2023-03-21T20:54:36.280Z,100505.97
2023-03-21T20:57:39.105Z,100541.53
2023-03-21T21:00:42.939Z,100541.16
2023-03-21T21:03:45.300Z,100538.97
2023-03-21T21:06:48.236Z,100543.19
2023-03-21T21:09:50.249Z,100526.62
2023-03-21T21:12:52.337Z,100528.81
2023-03-21T21:15:54.375Z,100536.44
2023-03-21T21:18:57.527Z,100546.28
2023-03-21T21:21:59.390Z,100546.34
2023-03-21T21:25:01.179Z,100548.38
2023-03-21T21:28:03.768Z,100549.56
2023-03-21T21:34:19.840Z,100528.44
2023-03-21T21:37:22.686Z,100518.37
2023-03-21T21:40:25.656Z,100505.28
2023-03-21T21:43:27.642Z,100496.59
2023-03-21T21:46:29.503Z,100513.09
2023-03-21T21:49:31.347Z,100507.38
2023-03-21T21:52:33.294Z,100507.53
2023-03-21T21:55:35.440Z,100516.78
2023-03-21T21:58:38.935Z,100518.53
2023-03-21T22:01:42.432Z,100528.59
2023-03-21T22:04:44.353Z,100520.25
2023-03-21T22:07:46.645Z,100524.97
2023-03-21T22:10:48.978Z,100525.44
2023-03-21T22:13:51.670Z,100519.06
2023-03-21T22:16:53.678Z,100516.56
2023-03-21T22:20:05.267Z,100542.34
2023-03-21T22:23:08.089Z,100540.69
2023-03-21T22:26:10.610Z,100568.59
2023-03-21T22:29:13.190Z,100569.25
2023-03-21T22:32:14.961Z,100562.28
2023-03-21T22:35:17.160Z,100564.41
2023-03-21T22:38:28.095Z,100570.69
2023-03-21T22:41:29.959Z,100566.37
2023-03-21T22:44:35.214Z,100566.37
2023-03-21T22:47:37.619Z,100557.75
2023-03-21T22:50:39.631Z,100559.06
2023-03-21T22:53:41.639Z,100560.78
2023-03-21T22:56:43.713Z,100557.00
2023-03-21T22:59:45.704Z,100558.03
2023-03-21T23:02:47.644Z,100549.06
2023-03-21T23:05:49.435Z,100554.59
2023-03-21T23:08:52.200Z,100559.94
2023-03-21T23:11:54.841Z,100578.12
2023-03-21T23:14:56.703Z,100571.31
2023-03-21T23:18:02.535Z,100558.94
2023-03-21T23:21:06.450Z,100558.25
2023-03-21T23:24:08.707Z,100590.00
2023-03-21T23:27:10.632Z,100600.03
2023-03-21T23:30:12.526Z,100608.59
2023-03-21T23:33:31.807Z,100592.56
2023-03-21T23:36:33.666Z,100572.75
2023-03-21T23:39:35.648Z,100569.47
2023-03-21T23:42:37.402Z,100565.44
2023-03-21T23:45:39.184Z,100561.69
2023-03-21T23:48:42.155Z,100564.56
2023-03-21T23:51:44.744Z,100559.37
2023-03-21T23:54:46.662Z,100566.16
2023-03-21T23:57:49.806Z,100562.50
